sensor_id;sensor_type;location;lat;lon;timestamp;P1;durP1;ratioP1;P2;durP2;ratioP2
49876;SDS011;35771;48.978;9.294;2023-02-28T00:01:26;2.83;;;2.60;;
49876;SDS011;35771;48.978;9.294;2023-02-28T00:03:52;2.55;;;2.10;;
49876;SDS011;35771;48.978;9.294;2023-02-28T00:06:20;3.83;;;2.33;;
49876;SDS011;35771;48.978;9.294;2023-02-28T00:08:47;3.75;;;2.45;;
49876;SDS011;35771;48.978;9.294;2023-02-28T00:11:14;4.03;;;2.75;;
49876;SDS011;35771;48.978;9.294;2023-02-28T00:13:42;6.07;;;2.50;;
49876;SDS011;35771;48.978;9.294;2023-02-28T00:18:39;2.10;;;1.90;;
49876;SDS011;35771;48.978;9.294;2023-02-28T00:21:06;3.03;;;2.10;;
49876;SDS011;35771;48.978;9.294;2023-02-28T00:23:35;10.65;;;2.88;;
49876;SDS011;35771;48.978;9.294;2023-02-28T00:26:02;4.50;;;2.30;;
49876;SDS011;35771;48.978;9.294;2023-02-28T00:28:29;2.60;;;2.20;;
49876;SDS011;35771;48.978;9.294;2023-02-28T00:30:55;4.57;;;2.90;;
49876;SDS011;35771;48.978;9.294;2023-02-28T00:33:22;3.77;;;2.60;;
49876;SDS011;35771;48.978;9.294;2023-02-28T00:35:49;3.10;;;2.77;;
49876;SDS011;35771;48.978;9.294;2023-02-28T00:38:16;3.47;;;2.47;;
49876;SDS011;35771;48.978;9.294;2023-02-28T00:40:44;3.90;;;2.38;;
49876;SDS011;35771;48.978;9.294;2023-02-28T00:43:10;5.13;;;3.20;;
49876;SDS011;35771;48.978;9.294;2023-02-28T00:45:37;5.97;;;2.57;;
49876;SDS011;35771;48.978;9.294;2023-02-28T00:48:03;2.07;;;1.90;;
49876;SDS011;35771;48.978;9.294;2023-02-28T00:50:31;4.70;;;2.83;;
49876;SDS011;35771;48.978;9.294;2023-02-28T00:52:57;2.57;;;2.37;;
49876;SDS011;35771;48.978;9.294;2023-02-28T00:55:24;3.72;;;3.30;;
49876;SDS011;35771;48.978;9.294;2023-02-28T00:57:52;4.80;;;3.17;;
49876;SDS011;35771;48.978;9.294;2023-02-28T01:00:18;3.63;;;2.00;;
49876;SDS011;35771;48.978;9.294;2023-02-28T01:02:45;2.87;;;2.47;;
49876;SDS011;35771;48.978;9.294;2023-02-28T01:05:11;2.17;;;1.97;;
49876;SDS011;35771;48.978;9.294;2023-02-28T01:07:38;6.00;;;3.00;;
49876;SDS011;35771;48.978;9.294;2023-02-28T01:10:05;3.53;;;2.80;;
49876;SDS011;35771;48.978;9.294;2023-02-28T01:12:32;5.70;;;2.63;;
49876;SDS011;35771;48.978;9.294;2023-02-28T01:15:00;2.90;;;2.30;;
49876;SDS011;35771;48.978;9.294;2023-02-28T01:17:27;4.57;;;2.20;;
49876;SDS011;35771;48.978;9.294;2023-02-28T01:19:53;2.97;;;2.27;;
49876;SDS011;35771;48.978;9.294;2023-02-28T01:22:20;5.60;;;2.27;;
49876;SDS011;35771;48.978;9.294;2023-02-28T01:24:47;5.53;;;3.00;;
49876;SDS011;35771;48.978;9.294;2023-02-28T01:27:13;2.63;;;2.38;;
49876;SDS011;35771;48.978;9.294;2023-02-28T01:29:40;3.53;;;2.53;;
49876;SDS011;35771;48.978;9.294;2023-02-28T01:32:08;6.30;;;3.00;;
49876;SDS011;35771;48.978;9.294;2023-02-28T01:34:34;6.57;;;3.30;;
49876;SDS011;35771;48.978;9.294;2023-02-28T01:37:01;3.50;;;2.20;;
49876;SDS011;35771;48.978;9.294;2023-02-28T01:39:28;4.43;;;2.47;;
49876;SDS011;35771;48.978;9.294;2023-02-28T01:41:55;3.67;;;2.90;;
49876;SDS011;35771;48.978;9.294;2023-02-28T01:47:30;3.10;;;2.73;;
49876;SDS011;35771;48.978;9.294;2023-02-28T01:50:00;6.13;;;3.53;;
49876;SDS011;35771;48.978;9.294;2023-02-28T01:52:28;3.43;;;2.83;;
49876;SDS011;35771;48.978;9.294;2023-02-28T01:54:55;4.17;;;2.77;;
49876;SDS011;35771;48.978;9.294;2023-02-28T01:57:27;3.70;;;3.17;;
49876;SDS011;35771;48.978;9.294;2023-02-28T02:00:03;5.57;;;2.83;;
49876;SDS011;35771;48.978;9.294;2023-02-28T02:02:35;2.58;;;2.35;;
49876;SDS011;35771;48.978;9.294;2023-02-28T02:05:05;4.25;;;2.47;;
49876;SDS011;35771;48.978;9.294;2023-02-28T02:07:34;5.32;;;3.25;;
49876;SDS011;35771;48.978;9.294;2023-02-28T02:10:04;2.33;;;2.05;;
49876;SDS011;35771;48.978;9.294;2023-02-28T02:12:37;3.42;;;2.65;;
49876;SDS011;35771;48.978;9.294;2023-02-28T02:15:19;3.87;;;3.00;;
49876;SDS011;35771;48.978;9.294;2023-02-28T02:17:54;8.10;;;3.40;;
49876;SDS011;35771;48.978;9.294;2023-02-28T02:20:32;6.38;;;3.03;;
49876;SDS011;35771;48.978;9.294;2023-02-28T02:23:18;4.73;;;3.00;;
49876;SDS011;35771;48.978;9.294;2023-02-28T02:25:54;2.47;;;2.27;;
49876;SDS011;35771;48.978;9.294;2023-02-28T02:28:32;4.38;;;3.67;;
49876;SDS011;35771;48.978;9.294;2023-02-28T02:31:25;4.55;;;2.58;;
49876;SDS011;35771;48.978;9.294;2023-02-28T02:34:21;5.17;;;3.10;;
49876;SDS011;35771;48.978;9.294;2023-02-28T02:36:59;5.10;;;3.17;;
49876;SDS011;35771;48.978;9.294;2023-02-28T02:39:36;2.37;;;2.10;;
49876;SDS011;35771;48.978;9.294;2023-02-28T02:42:11;4.63;;;3.50;;
49876;SDS011;35771;48.978;9.294;2023-02-28T02:44:45;7.90;;;3.20;;
49876;SDS011;35771;48.978;9.294;2023-02-28T02:47:15;4.63;;;2.43;;
49876;SDS011;35771;48.978;9.294;2023-02-28T02:49:46;3.50;;;2.38;;
49876;SDS011;35771;48.978;9.294;2023-02-28T02:52:17;3.87;;;3.17;;
49876;SDS011;35771;48.978;9.294;2023-02-28T02:54:47;2.67;;;2.30;;
49876;SDS011;35771;48.978;9.294;2023-02-28T02:57:20;5.07;;;3.33;;
49876;SDS011;35771;48.978;9.294;2023-02-28T02:59:51;3.37;;;3.03;;
49876;SDS011;35771;48.978;9.294;2023-02-28T03:02:19;4.43;;;3.30;;
49876;SDS011;35771;48.978;9.294;2023-02-28T03:04:50;3.10;;;2.80;;
49876;SDS011;35771;48.978;9.294;2023-02-28T03:07:19;6.87;;;3.13;;
49876;SDS011;35771;48.978;9.294;2023-02-28T03:09:50;6.33;;;3.20;;
49876;SDS011;35771;48.978;9.294;2023-02-28T03:12:18;4.60;;;3.40;;
49876;SDS011;35771;48.978;9.294;2023-02-28T03:14:48;5.28;;;3.13;;
49876;SDS011;35771;48.978;9.294;2023-02-28T03:17:35;3.60;;;2.67;;
49876;SDS011;35771;48.978;9.294;2023-02-28T03:22:45;4.73;;;3.10;;
49876;SDS011;35771;48.978;9.294;2023-02-28T03:25:19;3.17;;;2.87;;
49876;SDS011;35771;48.978;9.294;2023-02-28T03:27:53;5.40;;;3.00;;
49876;SDS011;35771;48.978;9.294;2023-02-28T03:30:27;4.90;;;3.07;;
49876;SDS011;35771;48.978;9.294;2023-02-28T03:32:59;4.03;;;2.53;;
49876;SDS011;35771;48.978;9.294;2023-02-28T03:35:34;3.97;;;3.20;;
49876;SDS011;35771;48.978;9.294;2023-02-28T03:38:05;7.80;;;3.80;;
49876;SDS011;35771;48.978;9.294;2023-02-28T03:40:39;11.23;;;3.73;;
49876;SDS011;35771;48.978;9.294;2023-02-28T03:43:09;5.83;;;3.47;;
49876;SDS011;35771;48.978;9.294;2023-02-28T03:45:40;3.37;;;2.87;;
49876;SDS011;35771;48.978;9.294;2023-02-28T03:48:11;6.25;;;3.55;;
49876;SDS011;35771;48.978;9.294;2023-02-28T03:50:44;5.55;;;2.30;;
49876;SDS011;35771;48.978;9.294;2023-02-28T03:53:14;7.27;;;4.33;;
49876;SDS011;35771;48.978;9.294;2023-02-28T03:55:45;5.60;;;3.00;;
49876;SDS011;35771;48.978;9.294;2023-02-28T03:58:16;4.55;;;2.58;;
49876;SDS011;35771;48.978;9.294;2023-02-28T04:00:52;3.00;;;2.70;;
49876;SDS011;35771;48.978;9.294;2023-02-28T04:03:23;4.35;;;2.90;;
49876;SDS011;35771;48.978;9.294;2023-02-28T04:05:52;5.80;;;3.60;;
49876;SDS011;35771;48.978;9.294;2023-02-28T04:08:20;6.18;;;3.72;;
49876;SDS011;35771;48.978;9.294;2023-02-28T04:10:49;5.35;;;3.70;;
49876;SDS011;35771;48.978;9.294;2023-02-28T04:13:21;4.43;;;3.30;;
49876;SDS011;35771;48.978;9.294;2023-02-28T04:15:48;2.57;;;2.37;;
49876;SDS011;35771;48.978;9.294;2023-02-28T04:18:14;4.30;;;2.67;;
49876;SDS011;35771;48.978;9.294;2023-02-28T04:20:41;3.97;;;3.20;;
49876;SDS011;35771;48.978;9.294;2023-02-28T04:23:09;5.03;;;3.90;;
49876;SDS011;35771;48.978;9.294;2023-02-28T04:25:35;7.82;;;3.40;;
49876;SDS011;35771;48.978;9.294;2023-02-28T04:28:02;3.83;;;3.08;;
49876;SDS011;35771;48.978;9.294;2023-02-28T04:30:28;7.60;;;4.18;;
49876;SDS011;35771;48.978;9.294;2023-02-28T04:32:57;9.57;;;3.40;;
49876;SDS011;35771;48.978;9.294;2023-02-28T04:35:24;7.70;;;3.25;;
49876;SDS011;35771;48.978;9.294;2023-02-28T04:37:50;5.35;;;3.58;;
49876;SDS011;35771;48.978;9.294;2023-02-28T04:40:18;6.28;;;3.88;;
49876;SDS011;35771;48.978;9.294;2023-02-28T04:42:44;4.47;;;3.22;;
49876;SDS011;35771;48.978;9.294;2023-02-28T04:45:11;5.53;;;3.03;;
49876;SDS011;35771;48.978;9.294;2023-02-28T04:47:37;5.78;;;3.50;;
49876;SDS011;35771;48.978;9.294;2023-02-28T04:50:04;5.50;;;3.72;;
49876;SDS011;35771;48.978;9.294;2023-02-28T04:52:31;6.50;;;4.03;;
49876;SDS011;35771;48.978;9.294;2023-02-28T04:54:58;3.70;;;2.75;;
49876;SDS011;35771;48.978;9.294;2023-02-28T04:57:26;9.38;;;5.10;;
49876;SDS011;35771;48.978;9.294;2023-02-28T04:59:52;3.78;;;2.95;;
49876;SDS011;35771;48.978;9.294;2023-02-28T05:02:19;8.27;;;4.32;;
49876;SDS011;35771;48.978;9.294;2023-02-28T05:04:46;5.18;;;2.45;;
49876;SDS011;35771;48.978;9.294;2023-02-28T05:07:12;9.90;;;3.72;;
49876;SDS011;35771;48.978;9.294;2023-02-28T05:09:39;6.65;;;3.92;;
49876;SDS011;35771;48.978;9.294;2023-02-28T05:12:05;5.20;;;3.85;;
49876;SDS011;35771;48.978;9.294;2023-02-28T05:14:33;7.55;;;3.92;;
49876;SDS011;35771;48.978;9.294;2023-02-28T05:17:01;6.72;;;3.78;;
49876;SDS011;35771;48.978;9.294;2023-02-28T05:19:28;5.35;;;3.60;;
49876;SDS011;35771;48.978;9.294;2023-02-28T05:21:54;5.40;;;3.58;;
49876;SDS011;35771;48.978;9.294;2023-02-28T05:24:22;7.63;;;3.22;;
49876;SDS011;35771;48.978;9.294;2023-02-28T05:26:49;10.88;;;4.80;;
49876;SDS011;35771;48.978;9.294;2023-02-28T05:29:17;5.32;;;3.90;;
49876;SDS011;35771;48.978;9.294;2023-02-28T05:31:45;3.47;;;3.03;;
49876;SDS011;35771;48.978;9.294;2023-02-28T05:34:12;4.35;;;3.67;;
49876;SDS011;35771;48.978;9.294;2023-02-28T05:36:40;3.78;;;3.47;;
49876;SDS011;35771;48.978;9.294;2023-02-28T05:39:07;9.23;;;4.20;;
49876;SDS011;35771;48.978;9.294;2023-02-28T05:41:37;7.32;;;4.25;;
49876;SDS011;35771;48.978;9.294;2023-02-28T05:44:05;3.33;;;2.93;;
49876;SDS011;35771;48.978;9.294;2023-02-28T05:46:31;4.15;;;2.95;;
49876;SDS011;35771;48.978;9.294;2023-02-28T05:48:59;6.03;;;4.20;;
49876;SDS011;35771;48.978;9.294;2023-02-28T05:51:25;7.68;;;5.03;;
49876;SDS011;35771;48.978;9.294;2023-02-28T05:53:52;5.97;;;3.15;;
49876;SDS011;35771;48.978;9.294;2023-02-28T05:56:18;5.97;;;4.60;;
49876;SDS011;35771;48.978;9.294;2023-02-28T05:58:45;7.82;;;4.20;;
49876;SDS011;35771;48.978;9.294;2023-02-28T06:01:26;6.03;;;3.37;;
49876;SDS011;35771;48.978;9.294;2023-02-28T06:04:00;7.50;;;5.10;;
49876;SDS011;35771;48.978;9.294;2023-02-28T06:06:26;7.15;;;3.58;;
49876;SDS011;35771;48.978;9.294;2023-02-28T06:08:54;3.90;;;2.80;;
49876;SDS011;35771;48.978;9.294;2023-02-28T06:11:21;3.80;;;2.95;;
49876;SDS011;35771;48.978;9.294;2023-02-28T06:13:52;5.82;;;3.83;;
49876;SDS011;35771;48.978;9.294;2023-02-28T06:16:19;8.52;;;4.95;;
49876;SDS011;35771;48.978;9.294;2023-02-28T06:18:46;5.72;;;4.18;;
49876;SDS011;35771;48.978;9.294;2023-02-28T06:21:14;7.65;;;3.70;;
49876;SDS011;35771;48.978;9.294;2023-02-28T06:23:43;7.47;;;4.03;;
49876;SDS011;35771;48.978;9.294;2023-02-28T06:26:09;6.10;;;4.10;;
49876;SDS011;35771;48.978;9.294;2023-02-28T06:28:36;7.82;;;4.72;;
49876;SDS011;35771;48.978;9.294;2023-02-28T06:31:05;11.18;;;4.85;;
49876;SDS011;35771;48.978;9.294;2023-02-28T06:33:33;6.30;;;4.35;;
49876;SDS011;35771;48.978;9.294;2023-02-28T06:35:59;6.57;;;4.63;;
49876;SDS011;35771;48.978;9.294;2023-02-28T06:38:27;4.05;;;3.47;;
49876;SDS011;35771;48.978;9.294;2023-02-28T06:40:54;6.47;;;4.47;;
49876;SDS011;35771;48.978;9.294;2023-02-28T06:43:21;5.55;;;3.05;;
49876;SDS011;35771;48.978;9.294;2023-02-28T06:45:47;12.05;;;4.53;;
49876;SDS011;35771;48.978;9.294;2023-02-28T06:48:14;4.85;;;3.45;;
49876;SDS011;35771;48.978;9.294;2023-02-28T06:50:40;3.13;;;2.65;;
49876;SDS011;35771;48.978;9.294;2023-02-28T06:53:07;8.35;;;4.60;;
49876;SDS011;35771;48.978;9.294;2023-02-28T06:55:35;7.90;;;3.25;;
49876;SDS011;35771;48.978;9.294;2023-02-28T06:58:03;6.60;;;3.90;;
49876;SDS011;35771;48.978;9.294;2023-02-28T07:00:40;4.60;;;3.28;;
49876;SDS011;35771;48.978;9.294;2023-02-28T07:03:09;5.28;;;2.92;;
49876;SDS011;35771;48.978;9.294;2023-02-28T07:05:37;8.73;;;4.15;;
49876;SDS011;35771;48.978;9.294;2023-02-28T07:08:04;7.97;;;4.45;;
49876;SDS011;35771;48.978;9.294;2023-02-28T07:10:32;7.10;;;4.10;;
49876;SDS011;35771;48.978;9.294;2023-02-28T07:13:00;4.82;;;3.67;;
49876;SDS011;35771;48.978;9.294;2023-02-28T07:15:27;5.70;;;3.85;;
49876;SDS011;35771;48.978;9.294;2023-02-28T07:17:53;8.15;;;4.45;;
49876;SDS011;35771;48.978;9.294;2023-02-28T07:20:21;5.57;;;3.83;;
49876;SDS011;35771;48.978;9.294;2023-02-28T07:22:48;8.30;;;3.80;;
49876;SDS011;35771;48.978;9.294;2023-02-28T07:25:21;6.35;;;4.63;;
49876;SDS011;35771;48.978;9.294;2023-02-28T07:27:48;8.40;;;4.28;;
49876;SDS011;35771;48.978;9.294;2023-02-28T07:30:16;7.80;;;4.07;;
49876;SDS011;35771;48.978;9.294;2023-02-28T07:32:43;6.43;;;4.10;;
49876;SDS011;35771;48.978;9.294;2023-02-28T07:35:09;4.57;;;3.33;;
49876;SDS011;35771;48.978;9.294;2023-02-28T07:37:36;7.63;;;4.40;;
49876;SDS011;35771;48.978;9.294;2023-02-28T07:40:03;11.48;;;5.53;;
49876;SDS011;35771;48.978;9.294;2023-02-28T07:42:33;9.35;;;4.80;;
49876;SDS011;35771;48.978;9.294;2023-02-28T07:45:00;11.43;;;4.63;;
49876;SDS011;35771;48.978;9.294;2023-02-28T07:47:27;5.53;;;3.72;;
49876;SDS011;35771;48.978;9.294;2023-02-28T07:49:55;7.22;;;4.50;;
49876;SDS011;35771;48.978;9.294;2023-02-28T07:52:21;7.80;;;4.57;;
49876;SDS011;35771;48.978;9.294;2023-02-28T07:54:49;9.93;;;5.13;;
49876;SDS011;35771;48.978;9.294;2023-02-28T07:57:15;14.93;;;6.18;;
49876;SDS011;35771;48.978;9.294;2023-02-28T07:59:43;7.88;;;5.10;;
49876;SDS011;35771;48.978;9.294;2023-02-28T08:02:10;10.38;;;4.70;;
49876;SDS011;35771;48.978;9.294;2023-02-28T08:04:41;9.88;;;5.32;;
49876;SDS011;35771;48.978;9.294;2023-02-28T08:07:07;11.07;;;5.05;;
49876;SDS011;35771;48.978;9.294;2023-02-28T08:09:34;9.45;;;4.53;;
49876;SDS011;35771;48.978;9.294;2023-02-28T08:12:01;7.07;;;4.60;;
49876;SDS011;35771;48.978;9.294;2023-02-28T08:14:28;5.65;;;4.13;;
49876;SDS011;35771;48.978;9.294;2023-02-28T08:16:55;4.50;;;4.00;;
49876;SDS011;35771;48.978;9.294;2023-02-28T08:19:21;9.73;;;4.70;;
49876;SDS011;35771;48.978;9.294;2023-02-28T08:21:49;9.68;;;5.95;;
49876;SDS011;35771;48.978;9.294;2023-02-28T08:24:16;7.22;;;4.07;;
49876;SDS011;35771;48.978;9.294;2023-02-28T08:26:42;8.30;;;4.82;;
49876;SDS011;35771;48.978;9.294;2023-02-28T08:29:09;9.15;;;5.15;;
49876;SDS011;35771;48.978;9.294;2023-02-28T08:31:35;9.40;;;5.07;;
49876;SDS011;35771;48.978;9.294;2023-02-28T08:34:04;10.63;;;6.00;;
49876;SDS011;35771;48.978;9.294;2023-02-28T08:36:31;7.35;;;4.50;;
49876;SDS011;35771;48.978;9.294;2023-02-28T08:38:59;6.63;;;4.65;;
49876;SDS011;35771;48.978;9.294;2023-02-28T08:41:26;7.95;;;3.90;;
49876;SDS011;35771;48.978;9.294;2023-02-28T08:43:52;11.68;;;5.75;;
49876;SDS011;35771;48.978;9.294;2023-02-28T08:46:19;11.90;;;6.20;;
49876;SDS011;35771;48.978;9.294;2023-02-28T08:48:46;8.80;;;4.95;;
49876;SDS011;35771;48.978;9.294;2023-02-28T08:51:14;4.95;;;3.70;;
49876;SDS011;35771;48.978;9.294;2023-02-28T08:53:46;6.10;;;4.38;;
49876;SDS011;35771;48.978;9.294;2023-02-28T08:56:15;8.70;;;4.63;;
49876;SDS011;35771;48.978;9.294;2023-02-28T08:58:43;8.25;;;5.35;;
49876;SDS011;35771;48.978;9.294;2023-02-28T09:01:12;11.30;;;5.80;;
49876;SDS011;35771;48.978;9.294;2023-02-28T09:03:41;7.18;;;5.13;;
49876;SDS011;35771;48.978;9.294;2023-02-28T09:06:09;8.55;;;5.50;;
49876;SDS011;35771;48.978;9.294;2023-02-28T09:08:36;10.80;;;5.57;;
49876;SDS011;35771;48.978;9.294;2023-02-28T09:11:03;12.43;;;5.82;;
49876;SDS011;35771;48.978;9.294;2023-02-28T09:13:32;6.90;;;4.05;;
49876;SDS011;35771;48.978;9.294;2023-02-28T09:15:59;8.57;;;4.97;;
49876;SDS011;35771;48.978;9.294;2023-02-28T09:18:26;9.18;;;5.53;;
49876;SDS011;35771;48.978;9.294;2023-02-28T09:20:53;9.27;;;5.30;;
49876;SDS011;35771;48.978;9.294;2023-02-28T09:23:20;12.60;;;6.20;;
49876;SDS011;35771;48.978;9.294;2023-02-28T09:25:47;8.80;;;5.55;;
49876;SDS011;35771;48.978;9.294;2023-02-28T09:28:14;11.25;;;5.57;;
49876;SDS011;35771;48.978;9.294;2023-02-28T09:30:43;9.50;;;5.18;;
49876;SDS011;35771;48.978;9.294;2023-02-28T09:33:11;10.45;;;6.22;;
49876;SDS011;35771;48.978;9.294;2023-02-28T09:35:38;11.43;;;5.97;;
49876;SDS011;35771;48.978;9.294;2023-02-28T09:38:04;8.57;;;5.32;;
49876;SDS011;35771;48.978;9.294;2023-02-28T09:40:34;9.65;;;5.45;;
49876;SDS011;35771;48.978;9.294;2023-02-28T09:43:03;8.43;;;5.22;;
49876;SDS011;35771;48.978;9.294;2023-02-28T09:45:31;12.10;;;5.80;;
49876;SDS011;35771;48.978;9.294;2023-02-28T09:48:03;7.88;;;5.20;;
49876;SDS011;35771;48.978;9.294;2023-02-28T09:50:37;12.30;;;4.63;;
49876;SDS011;35771;48.978;9.294;2023-02-28T09:53:10;11.90;;;6.68;;
49876;SDS011;35771;48.978;9.294;2023-02-28T09:55:47;11.75;;;5.45;;
49876;SDS011;35771;48.978;9.294;2023-02-28T09:58:17;9.30;;;5.07;;
49876;SDS011;35771;48.978;9.294;2023-02-28T10:00:50;10.10;;;5.07;;
49876;SDS011;35771;48.978;9.294;2023-02-28T10:03:28;9.77;;;4.72;;
49876;SDS011;35771;48.978;9.294;2023-02-28T10:05:59;5.55;;;3.78;;
49876;SDS011;35771;48.978;9.294;2023-02-28T10:08:32;11.23;;;6.00;;
49876;SDS011;35771;48.978;9.294;2023-02-28T10:11:06;10.90;;;5.10;;
49876;SDS011;35771;48.978;9.294;2023-02-28T10:13:37;11.15;;;5.38;;
49876;SDS011;35771;48.978;9.294;2023-02-28T10:16:14;9.20;;;5.38;;
49876;SDS011;35771;48.978;9.294;2023-02-28T10:18:50;13.32;;;5.60;;
49876;SDS011;35771;48.978;9.294;2023-02-28T10:21:20;7.75;;;5.05;;
49876;SDS011;35771;48.978;9.294;2023-02-28T10:23:53;10.68;;;5.78;;
49876;SDS011;35771;48.978;9.294;2023-02-28T10:26:28;8.73;;;5.18;;
49876;SDS011;35771;48.978;9.294;2023-02-28T10:28:57;6.75;;;4.97;;
49876;SDS011;35771;48.978;9.294;2023-02-28T10:31:24;5.75;;;4.07;;
49876;SDS011;35771;48.978;9.294;2023-02-28T10:33:52;9.65;;;4.95;;
49876;SDS011;35771;48.978;9.294;2023-02-28T10:36:19;10.70;;;5.78;;
49876;SDS011;35771;48.978;9.294;2023-02-28T10:38:47;11.63;;;5.07;;
49876;SDS011;35771;48.978;9.294;2023-02-28T10:41:14;11.27;;;4.85;;
49876;SDS011;35771;48.978;9.294;2023-02-28T10:43:42;11.30;;;5.88;;
49876;SDS011;35771;48.978;9.294;2023-02-28T10:46:15;13.30;;;6.32;;
49876;SDS011;35771;48.978;9.294;2023-02-28T10:48:59;10.65;;;5.78;;
49876;SDS011;35771;48.978;9.294;2023-02-28T10:51:34;8.82;;;5.47;;
49876;SDS011;35771;48.978;9.294;2023-02-28T10:54:03;11.75;;;5.28;;
49876;SDS011;35771;48.978;9.294;2023-02-28T10:56:30;11.57;;;5.10;;
49876;SDS011;35771;48.978;9.294;2023-02-28T10:58:59;10.77;;;5.15;;
49876;SDS011;35771;48.978;9.294;2023-02-28T11:01:34;7.97;;;5.18;;
49876;SDS011;35771;48.978;9.294;2023-02-28T11:04:04;9.60;;;4.18;;
49876;SDS011;35771;48.978;9.294;2023-02-28T11:06:44;8.75;;;5.65;;
49876;SDS011;35771;48.978;9.294;2023-02-28T11:09:16;10.65;;;4.95;;
49876;SDS011;35771;48.978;9.294;2023-02-28T11:11:48;6.90;;;4.00;;
49876;SDS011;35771;48.978;9.294;2023-02-28T11:14:17;11.20;;;5.57;;
49876;SDS011;35771;48.978;9.294;2023-02-28T11:16:47;9.70;;;4.85;;
49876;SDS011;35771;48.978;9.294;2023-02-28T11:19:18;8.02;;;4.82;;
49876;SDS011;35771;48.978;9.294;2023-02-28T11:21:51;11.38;;;5.28;;
49876;SDS011;35771;48.978;9.294;2023-02-28T11:24:22;8.98;;;4.22;;
49876;SDS011;35771;48.978;9.294;2023-02-28T11:26:51;10.02;;;5.22;;
49876;SDS011;35771;48.978;9.294;2023-02-28T11:29:19;11.45;;;5.43;;
49876;SDS011;35771;48.978;9.294;2023-02-28T11:32:00;15.13;;;5.78;;
49876;SDS011;35771;48.978;9.294;2023-02-28T11:34:39;6.60;;;4.78;;
49876;SDS011;35771;48.978;9.294;2023-02-28T11:37:09;10.82;;;5.05;;
49876;SDS011;35771;48.978;9.294;2023-02-28T11:39:38;7.25;;;4.88;;
49876;SDS011;35771;48.978;9.294;2023-02-28T11:42:12;8.98;;;5.10;;
49876;SDS011;35771;48.978;9.294;2023-02-28T11:45:03;7.85;;;4.72;;
49876;SDS011;35771;48.978;9.294;2023-02-28T11:47:44;11.52;;;5.07;;
49876;SDS011;35771;48.978;9.294;2023-02-28T11:50:19;13.15;;;6.60;;
49876;SDS011;35771;48.978;9.294;2023-02-28T11:52:54;9.48;;;4.90;;
49876;SDS011;35771;48.978;9.294;2023-02-28T11:55:24;10.82;;;5.63;;
49876;SDS011;35771;48.978;9.294;2023-02-28T11:57:56;9.25;;;4.70;;
49876;SDS011;35771;48.978;9.294;2023-02-28T12:00:35;9.67;;;4.93;;
49876;SDS011;35771;48.978;9.294;2023-02-28T12:03:19;8.60;;;4.55;;
49876;SDS011;35771;48.978;9.294;2023-02-28T12:06:01;11.18;;;5.65;;
49876;SDS011;35771;48.978;9.294;2023-02-28T12:08:42;9.80;;;5.22;;
49876;SDS011;35771;48.978;9.294;2023-02-28T12:11:17;8.32;;;4.07;;
49876;SDS011;35771;48.978;9.294;2023-02-28T12:13:55;9.32;;;5.07;;
49876;SDS011;35771;48.978;9.294;2023-02-28T12:16:42;7.72;;;5.13;;
49876;SDS011;35771;48.978;9.294;2023-02-28T12:19:19;6.65;;;4.50;;
49876;SDS011;35771;48.978;9.294;2023-02-28T12:22:00;9.77;;;5.65;;
49876;SDS011;35771;48.978;9.294;2023-02-28T12:28:06;8.32;;;4.55;;
49876;SDS011;35771;48.978;9.294;2023-02-28T12:30:35;7.25;;;4.72;;
49876;SDS011;35771;48.978;9.294;2023-02-28T12:33:07;8.70;;;5.32;;
49876;SDS011;35771;48.978;9.294;2023-02-28T12:35:39;10.82;;;5.72;;
49876;SDS011;35771;48.978;9.294;2023-02-28T12:38:14;7.60;;;4.65;;
49876;SDS011;35771;48.978;9.294;2023-02-28T12:40:46;7.43;;;5.10;;
49876;SDS011;35771;48.978;9.294;2023-02-28T12:43:17;10.55;;;5.45;;
49876;SDS011;35771;48.978;9.294;2023-02-28T12:45:46;11.70;;;5.10;;
49876;SDS011;35771;48.978;9.294;2023-02-28T12:48:18;9.43;;;5.13;;
49876;SDS011;35771;48.978;9.294;2023-02-28T12:50:50;7.85;;;3.88;;
49876;SDS011;35771;48.978;9.294;2023-02-28T12:53:21;11.27;;;5.50;;
49876;SDS011;35771;48.978;9.294;2023-02-28T12:55:53;8.18;;;4.15;;
49876;SDS011;35771;48.978;9.294;2023-02-28T12:58:27;8.82;;;4.28;;
49876;SDS011;35771;48.978;9.294;2023-02-28T13:01:04;8.45;;;4.70;;
49876;SDS011;35771;48.978;9.294;2023-02-28T13:04:17;9.30;;;6.00;;
49876;SDS011;35771;48.978;9.294;2023-02-28T13:07:03;6.50;;;3.75;;
49876;SDS011;35771;48.978;9.294;2023-02-28T13:09:54;10.15;;;5.47;;
49876;SDS011;35771;48.978;9.294;2023-02-28T13:12:22;9.13;;;5.22;;
49876;SDS011;35771;48.978;9.294;2023-02-28T13:14:50;10.90;;;5.30;;
49876;SDS011;35771;48.978;9.294;2023-02-28T13:17:25;10.30;;;5.70;;
49876;SDS011;35771;48.978;9.294;2023-02-28T13:19:56;8.00;;;4.63;;
49876;SDS011;35771;48.978;9.294;2023-02-28T13:22:38;7.80;;;4.82;;
49876;SDS011;35771;48.978;9.294;2023-02-28T13:31:28;10.13;;;4.75;;
49876;SDS011;35771;48.978;9.294;2023-02-28T13:34:04;8.57;;;5.25;;
49876;SDS011;35771;48.978;9.294;2023-02-28T13:36:38;6.50;;;4.45;;
49876;SDS011;35771;48.978;9.294;2023-02-28T13:39:44;10.93;;;4.90;;
49876;SDS011;35771;48.978;9.294;2023-02-28T13:42:22;10.35;;;5.78;;
49876;SDS011;35771;48.978;9.294;2023-02-28T13:47:52;10.10;;;5.43;;
49876;SDS011;35771;48.978;9.294;2023-02-28T13:50:24;9.70;;;5.28;;
49876;SDS011;35771;48.978;9.294;2023-02-28T13:53:04;10.65;;;6.05;;
49876;SDS011;35771;48.978;9.294;2023-02-28T13:55:51;10.65;;;5.45;;
49876;SDS011;35771;48.978;9.294;2023-02-28T13:58:33;9.38;;;5.68;;
49876;SDS011;35771;48.978;9.294;2023-02-28T14:01:14;7.85;;;4.25;;
49876;SDS011;35771;48.978;9.294;2023-02-28T14:04:03;10.18;;;6.07;;
49876;SDS011;35771;48.978;9.294;2023-02-28T14:06:46;11.30;;;6.20;;
49876;SDS011;35771;48.978;9.294;2023-02-28T14:09:19;10.95;;;6.47;;
49876;SDS011;35771;48.978;9.294;2023-02-28T14:11:51;11.55;;;6.20;;
49876;SDS011;35771;48.978;9.294;2023-02-28T14:17:21;8.77;;;5.32;;
49876;SDS011;35771;48.978;9.294;2023-02-28T14:19:48;12.38;;;6.53;;
49876;SDS011;35771;48.978;9.294;2023-02-28T14:22:18;13.32;;;6.57;;
49876;SDS011;35771;48.978;9.294;2023-02-28T14:25:08;11.88;;;7.35;;
49876;SDS011;35771;48.978;9.294;2023-02-28T14:27:44;9.20;;;4.85;;
49876;SDS011;35771;48.978;9.294;2023-02-28T14:30:29;15.98;;;6.28;;
49876;SDS011;35771;48.978;9.294;2023-02-28T14:33:16;9.93;;;4.93;;
49876;SDS011;35771;48.978;9.294;2023-02-28T14:35:55;8.35;;;5.25;;
49876;SDS011;35771;48.978;9.294;2023-02-28T14:38:28;16.13;;;4.95;;
49876;SDS011;35771;48.978;9.294;2023-02-28T14:41:00;9.20;;;5.68;;
49876;SDS011;35771;48.978;9.294;2023-02-28T14:43:30;11.25;;;5.47;;
49876;SDS011;35771;48.978;9.294;2023-02-28T14:45:58;10.32;;;5.72;;
49876;SDS011;35771;48.978;9.294;2023-02-28T14:50:54;13.07;;;5.90;;
49876;SDS011;35771;48.978;9.294;2023-02-28T14:53:23;11.00;;;5.30;;
49876;SDS011;35771;48.978;9.294;2023-02-28T14:55:52;7.30;;;4.53;;
49876;SDS011;35771;48.978;9.294;2023-02-28T14:58:23;13.63;;;6.28;;
49876;SDS011;35771;48.978;9.294;2023-02-28T15:00:53;10.57;;;5.03;;
49876;SDS011;35771;48.978;9.294;2023-02-28T15:03:22;12.07;;;6.35;;
49876;SDS011;35771;48.978;9.294;2023-02-28T15:05:51;14.50;;;6.73;;
49876;SDS011;35771;48.978;9.294;2023-02-28T15:08:19;17.60;;;5.45;;
49876;SDS011;35771;48.978;9.294;2023-02-28T15:10:49;7.85;;;5.35;;
49876;SDS011;35771;48.978;9.294;2023-02-28T15:13:19;8.90;;;4.60;;
49876;SDS011;35771;48.978;9.294;2023-02-28T15:15:48;12.38;;;5.53;;
49876;SDS011;35771;48.978;9.294;2023-02-28T15:18:23;11.02;;;7.07;;
49876;SDS011;35771;48.978;9.294;2023-02-28T15:20:55;11.05;;;4.80;;
49876;SDS011;35771;48.978;9.294;2023-02-28T15:23:23;9.40;;;5.60;;
49876;SDS011;35771;48.978;9.294;2023-02-28T15:25:50;8.52;;;5.07;;
49876;SDS011;35771;48.978;9.294;2023-02-28T15:28:19;10.85;;;6.22;;
49876;SDS011;35771;48.978;9.294;2023-02-28T15:30:54;10.05;;;5.55;;
49876;SDS011;35771;48.978;9.294;2023-02-28T15:33:23;10.63;;;6.25;;